Time;durP1;ratioP1;P1;durP2;ratioP2;P2;SDS_P1;SDS_P2;PMS_P1;PMS_P2;Temp;Humidity;BMP_temperature;BMP_pressure;BME280_temperature;BME280_humidity;BME280_pressure;Samples;Min_cycle;Max_cycle;Signal;HPM_P1;HPM_P2
2022/10/15 00:01:16;;;;;;;12.52;5.60;;;12.40;99.90;;;;;;5029201;28;20041;-71
2022/10/15 00:03:43;;;;;;;12.18;5.13;;;12.40;99.90;;;;;;5028852;28;20053;-71
2022/10/15 00:06:12;;;;;;;10.75;5.80;;;12.40;99.90;;;;;;5012861;28;20049;-71
2022/10/15 00:08:38;;;;;;;19.60;5.68;;;12.40;99.90;;;;;;5012338;28;20057;-71
2022/10/15 00:11:07;;;;;;;12.35;5.85;;;12.40;99.90;;;;;;5028811;28;20091;-71
2022/10/15 00:13:33;;;;;;;13.52;5.60;;;12.40;99.90;;;;;;5011981;28;20739;-71
2022/10/15 00:15:59;;;;;;;14.32;6.00;;;12.50;99.90;;;;;;5030204;28;20048;-71
2022/10/15 00:18:25;;;;;;;12.13;6.20;;;12.40;99.90;;;;;;5028938;28;20037;-71
2022/10/15 00:20:50;;;;;;;14.65;6.28;;;12.40;99.90;;;;;;5028760;28;20045;-71
2022/10/15 00:23:16;;;;;;;14.27;5.95;;;12.40;99.90;;;;;;5011895;28;20067;-71
2022/10/15 00:25:42;;;;;;;10.13;5.38;;;12.40;99.90;;;;;;5030096;28;20124;-71
2022/10/15 00:28:07;;;;;;;16.50;6.55;;;12.40;99.90;;;;;;5011229;28;20038;-71
2022/10/15 00:30:33;;;;;;;10.43;5.00;;;12.40;99.90;;;;;;5028756;28;20083;-71
2022/10/15 00:32:59;;;;;;;13.07;5.80;;;12.30;99.90;;;;;;5028608;28;20075;-71
2022/10/15 00:35:24;;;;;;;11.52;5.50;;;12.40;99.90;;;;;;5028743;28;20095;-71
2022/10/15 00:37:50;;;;;;;13.88;5.88;;;12.40;99.90;;;;;;5028098;28;20037;-71
2022/10/15 00:40:15;;;;;;;15.50;6.70;;;12.40;99.90;;;;;;5028472;28;20049;-71
2022/10/15 00:42:41;;;;;;;14.45;6.30;;;12.30;99.90;;;;;;5028766;28;20041;-71
2022/10/15 00:45:14;;;;;;;14.32;6.07;;;12.40;99.90;;;;;;5011553;28;20514;-71
2022/10/15 00:47:46;;;;;;;12.52;6.07;;;12.40;99.90;;;;;;5028397;28;20034;-71
2022/10/15 00:50:19;;;;;;;12.57;5.80;;;12.30;99.90;;;;;;5028296;28;20537;-71
2022/10/15 00:53:02;;;;;;;15.43;7.18;;;12.30;99.90;;;;;;5011529;28;20084;-71
2022/10/15 00:55:34;;;;;;;14.95;5.93;;;12.30;99.90;;;;;;5028215;28;20485;-71
2022/10/15 00:58:05;;;;;;;17.35;7.35;;;12.30;99.90;;;;;;5027242;28;20048;-71
2022/10/15 01:00:31;;;;;;;13.35;5.95;;;12.30;99.90;;;;;;5027750;28;20204;-71
2022/10/15 01:02:57;;;;;;;14.00;6.82;;;12.30;99.90;;;;;;5029598;28;20041;-71
2022/10/15 01:05:23;;;;;;;15.93;6.90;;;12.30;99.90;;;;;;5028155;28;20622;-71
2022/10/15 01:07:49;;;;;;;18.13;8.35;;;12.30;99.90;;;;;;5027390;28;20115;-71
2022/10/15 01:10:15;;;;;;;14.57;6.72;;;12.30;99.90;;;;;;5027856;28;20041;-71
2022/10/15 01:13:12;;;;;;;14.38;7.13;;;12.30;99.90;;;;;;5028293;28;20168;-71
2022/10/15 01:15:48;;;;;;;15.60;7.57;;;12.30;99.90;;;;;;5028277;28;20057;-71
2022/10/15 01:18:21;;;;;;;15.68;7.70;;;12.30;99.90;;;;;;5028097;28;20080;-71
2022/10/15 01:20:52;;;;;;;16.75;7.78;;;12.30;99.90;;;;;;5027788;28;20122;-71
2022/10/15 01:23:56;;;;;;;17.52;7.95;;;12.30;99.90;;;;;;5027023;28;20068;-71
2022/10/15 01:26:41;;;;;;;14.25;7.07;;;12.30;99.90;;;;;;5010663;28;20041;-71
2022/10/15 01:29:23;;;;;;;16.70;8.27;;;12.30;99.90;;;;;;5011640;28;20373;-71
2022/10/15 01:32:05;;;;;;;13.05;6.38;;;12.30;99.90;;;;;;5027354;28;20527;-71
2022/10/15 01:34:30;;;;;;;22.95;7.90;;;12.30;99.90;;;;;;5011097;28;20041;-71
2022/10/15 01:37:06;;;;;;;15.25;7.30;;;12.30;99.90;;;;;;5027337;28;20042;-71
2022/10/15 01:39:42;;;;;;;;;;;12.30;99.90;;;;;;5029415;28;20116;-71
2022/10/15 01:42:13;;;;;;;13.20;6.45;;;12.30;99.90;;;;;;5026482;28;19976;-71
2022/10/15 01:44:48;;;;;;;18.52;7.75;;;12.40;99.90;;;;;;5027749;28;20506;-71
2022/10/15 01:47:24;;;;;;;17.45;7.70;;;12.30;99.90;;;;;;5011088;28;20047;-71
2022/10/15 01:49:53;;;;;;;16.52;8.20;;;12.30;99.90;;;;;;5027465;28;20076;-71
2022/10/15 01:52:27;;;;;;;19.05;8.65;;;12.40;99.90;;;;;;5028963;28;20120;-71
2022/10/15 01:54:54;;;;;;;14.38;6.85;;;12.30;99.90;;;;;;5027266;28;20511;-71
2022/10/15 01:57:21;;;;;;;15.50;7.63;;;12.40;99.90;;;;;;5029476;28;20128;-71
2022/10/15 01:59:47;;;;;;;15.75;7.05;;;12.30;99.90;;;;;;5031791;28;20045;-71
2022/10/15 02:02:12;;;;;;;15.93;7.57;;;12.30;99.90;;;;;;5031467;28;20465;-71
2022/10/15 02:04:38;;;;;;;16.48;8.10;;;12.30;99.90;;;;;;5032683;28;20033;-71
2022/10/15 02:07:32;;;;;;;16.65;7.53;;;12.30;99.90;;;;;;5030844;28;20048;-71
2022/10/15 02:10:12;;;;;;;15.20;7.05;;;12.30;99.90;;;;;;5031229;28;20553;-71
2022/10/15 02:13:06;;;;;;;15.68;7.43;;;12.30;99.90;;;;;;5030173;28;20107;-71
2022/10/15 02:15:44;;;;;;;15.35;7.50;;;12.30;99.90;;;;;;5027774;28;20045;-71
2022/10/15 02:18:47;;;;;;;11.57;6.13;;;12.30;99.90;;;;;;4998654;28;20128;-71
2022/10/15 02:21:23;;;;;;;13.90;6.75;;;12.20;99.90;;;;;;5032256;28;20467;-71
2022/10/15 02:24:04;;;;;;;15.10;6.78;;;12.20;99.90;;;;;;5031909;28;20037;-71
2022/10/15 02:26:32;;;;;;;13.00;5.85;;;12.30;99.90;;;;;;5031279;28;20505;-71
2022/10/15 02:28:59;;;;;;;13.88;6.63;;;12.30;99.90;;;;;;5030975;28;20087;-71
2022/10/15 02:31:26;;;;;;;16.80;6.45;;;12.30;99.90;;;;;;5030913;28;20043;-71
2022/10/15 02:33:56;;;;;;;15.15;7.90;;;12.30;99.90;;;;;;5030962;28;20091;-71
2022/10/15 02:36:22;;;;;;;14.15;6.72;;;12.20;99.90;;;;;;5030545;28;20046;-71
2022/10/15 02:38:50;;;;;;;14.70;5.70;;;12.20;99.90;;;;;;5014120;28;20052;-71
2022/10/15 02:41:17;;;;;;;14.93;6.75;;;12.20;99.90;;;;;;5014090;28;20041;-71
2022/10/15 02:43:42;;;;;;;17.17;7.32;;;12.20;99.90;;;;;;5013551;28;20095;-71
2022/10/15 02:46:11;;;;;;;14.38;6.50;;;12.30;99.90;;;;;;5030636;28;20038;-71
2022/10/15 02:48:36;;;;;;;16.48;6.57;;;12.20;99.90;;;;;;5013971;28;20527;-71
2022/10/15 02:51:03;;;;;;;15.57;7.85;;;12.20;99.90;;;;;;5030014;28;20136;-71
2022/10/15 02:53:29;;;;;;;14.18;6.97;;;12.30;99.90;;;;;;5030321;28;20057;-71
2022/10/15 02:55:54;;;;;;;18.13;6.93;;;12.20;99.90;;;;;;5030612;28;20041;-71
2022/10/15 02:58:20;;;;;;;15.15;6.85;;;12.30;99.90;;;;;;5029639;28;20100;-71
2022/10/15 03:00:45;;;;;;;15.88;7.43;;;12.20;99.90;;;;;;5031531;28;20033;-71
2022/10/15 03:03:11;;;;;;;17.02;7.05;;;12.20;99.90;;;;;;5030402;28;20432;-71
2022/10/15 03:05:37;;;;;;;14.38;6.47;;;12.20;99.90;;;;;;5030257;28;20056;-71
2022/10/15 03:08:02;;;;;;;16.85;6.75;;;12.20;99.90;;;;;;5029306;28;20049;-71
2022/10/15 03:10:28;;;;;;;17.73;6.65;;;12.30;99.90;;;;;;5029961;28;20522;-71
2022/10/15 03:12:54;;;;;;;13.88;5.97;;;12.20;99.90;;;;;;5029165;28;20048;-71
2022/10/15 03:15:19;;;;;;;15.02;6.80;;;12.20;99.90;;;;;;5031304;28;20458;-71
2022/10/15 03:17:45;;;;;;;15.45;6.60;;;12.20;99.90;;;;;;5029898;28;20041;-71
2022/10/15 03:20:10;;;;;;;12.32;6.00;;;12.20;99.90;;;;;;5029975;28;20099;-71
2022/10/15 03:22:36;;;;;;;12.85;5.93;;;12.30;99.90;;;;;;5029126;28;20060;-71
2022/10/15 03:25:02;;;;;;;13.38;5.55;;;12.20;99.90;;;;;;5029803;28;20113;-71
2022/10/15 03:27:28;;;;;;;15.63;7.07;;;12.20;99.90;;;;;;5028642;28;20403;-71
2022/10/15 03:29:53;;;;;;;17.52;7.25;;;12.20;99.90;;;;;;5031062;28;20042;-71
2022/10/15 03:32:19;;;;;;;15.07;6.55;;;12.20;99.90;;;;;;5029631;28;20451;-71
2022/10/15 03:34:44;;;;;;;12.13;6.18;;;12.20;99.90;;;;;;5030663;28;20103;-71
2022/10/15 03:37:10;;;;;;;16.45;6.75;;;12.20;99.90;;;;;;5029360;28;20087;-71
2022/10/15 03:39:36;;;;;;;13.48;5.85;;;12.20;99.90;;;;;;5029559;28;20033;-71
2022/10/15 03:42:02;;;;;;;13.35;6.18;;;12.20;99.90;;;;;;5028683;28;20410;-71
2022/10/15 03:44:27;;;;;;;12.23;5.50;;;12.20;99.90;;;;;;5029416;28;20033;-71
2022/10/15 03:46:53;;;;;;;11.82;5.78;;;12.20;99.90;;;;;;5012928;28;20034;-71
2022/10/15 03:49:18;;;;;;;14.38;6.45;;;12.20;99.90;;;;;;5029188;28;20037;-71
2022/10/15 03:51:44;;;;;;;13.70;5.85;;;12.20;99.90;;;;;;5030433;28;20713;-71
2022/10/15 03:54:10;;;;;;;15.45;5.65;;;12.20;99.90;;;;;;5029311;28;20048;-71
2022/10/15 03:56:35;;;;;;;15.50;6.45;;;12.20;99.90;;;;;;5011659;28;20411;-71
2022/10/15 03:59:01;;;;;;;15.20;6.80;;;12.20;99.90;;;;;;5029639;28;20041;-71
2022/10/15 04:01:26;;;;;;;14.32;6.88;;;12.20;99.90;;;;;;5012769;28;20083;-71
2022/10/15 04:03:52;;;;;;;12.35;6.32;;;12.20;99.90;;;;;;5029042;28;20052;-71
2022/10/15 04:06:18;;;;;;;10.75;5.47;;;12.10;99.90;;;;;;5030587;28;20403;-71
2022/10/15 04:08:44;;;;;;;16.23;6.00;;;12.10;99.90;;;;;;5028823;28;20119;-71
2022/10/15 04:11:09;;;;;;;13.68;5.75;;;12.10;99.90;;;;;;5030109;28;20494;-71
2022/10/15 04:13:35;;;;;;;14.95;5.95;;;12.10;99.90;;;;;;5029573;28;20041;-71
2022/10/15 04:16:04;;;;;;;12.05;5.45;;;12.20;99.90;;;;;;5029069;28;20063;-71
2022/10/15 04:18:30;;;;;;;14.32;5.93;;;12.10;99.90;;;;;;5028431;28;20200;-71
2022/10/15 04:20:58;;;;;;;16.38;6.15;;;12.10;99.90;;;;;;5029290;28;20219;-71
2022/10/15 04:23:24;;;;;;;13.93;6.28;;;12.10;99.90;;;;;;5011963;28;20083;-71
2022/10/15 04:25:49;;;;;;;15.10;5.53;;;12.10;99.90;;;;;;5012379;28;20042;-71
2022/10/15 04:28:15;;;;;;;15.05;6.18;;;12.10;99.90;;;;;;5027572;28;20171;-71
2022/10/15 04:30:41;;;;;;;17.40;6.32;;;12.10;99.90;;;;;;5028719;28;20068;-71
2022/10/15 04:33:07;;;;;;;15.68;6.60;;;12.10;99.90;;;;;;5011762;28;20049;-71
2022/10/15 04:35:33;;;;;;;15.75;6.75;;;12.10;99.90;;;;;;5028434;28;20121;-71
2022/10/15 04:37:59;;;;;;;16.33;7.20;;;12.10;99.90;;;;;;5028205;28;20045;-71
2022/10/15 04:40:25;;;;;;;14.90;7.05;;;12.00;99.90;;;;;;5028455;28;20047;-71
2022/10/15 04:42:51;;;;;;;15.07;6.80;;;12.00;99.90;;;;;;5027294;28;20388;-71
2022/10/15 04:45:17;;;;;;;15.85;7.25;;;12.00;99.90;;;;;;5028455;28;20041;-71
2022/10/15 04:47:43;;;;;;;18.60;7.25;;;12.00;99.90;;;;;;5028024;28;20059;-71
2022/10/15 04:50:09;;;;;;;18.40;7.68;;;12.00;99.90;;;;;;5028389;28;20042;-71
2022/10/15 04:52:35;;;;;;;16.23;7.00;;;12.00;99.90;;;;;;5027714;28;20047;-71
2022/10/15 04:55:02;;;;;;;21.58;8.73;;;12.00;99.90;;;;;;5011860;28;20271;-71
2022/10/15 04:57:27;;;;;;;18.10;7.85;;;12.00;99.90;;;;;;5027065;28;20057;-71
2022/10/15 04:59:53;;;;;;;17.15;7.88;;;12.00;99.90;;;;;;5028078;28;20056;-71
2022/10/15 05:02:19;;;;;;;21.15;8.38;;;12.00;99.90;;;;;;5027857;28;20038;-71
2022/10/15 05:04:44;;;;;;;16.25;7.35;;;11.90;99.90;;;;;;5028110;28;20068;-71
2022/10/15 05:07:10;;;;;;;20.48;9.00;;;11.90;99.90;;;;;;5027926;28;20057;-71
2022/10/15 05:09:35;;;;;;;16.70;7.13;;;11.90;99.90;;;;;;5027697;28;20057;-71
2022/10/15 05:12:01;;;;;;;19.98;7.32;;;11.90;99.90;;;;;;5010501;28;20075;-71
2022/10/15 05:14:27;;;;;;;18.75;8.35;;;11.90;99.90;;;;;;5027962;28;20068;-71
2022/10/15 05:16:52;;;;;;;16.60;7.85;;;11.90;99.90;;;;;;5027524;28;20160;-71
2022/10/15 05:19:18;;;;;;;22.00;8.90;;;11.80;99.90;;;;;;5027771;28;20038;-71
2022/10/15 05:21:44;;;;;;;19.92;6.97;;;11.90;99.90;;;;;;5027359;28;20088;-71
2022/10/15 05:24:10;;;;;;;20.70;7.68;;;11.80;99.90;;;;;;5011273;28;20098;-71
2022/10/15 05:26:36;;;;;;;24.67;9.45;;;11.80;99.90;;;;;;5010358;28;20075;-71
2022/10/15 05:29:01;;;;;;;17.75;7.47;;;11.80;99.90;;;;;;5011290;28;20038;-71
2022/10/15 05:31:29;;;;;;;18.63;8.07;;;11.90;99.90;;;;;;5027102;28;20083;-71
2022/10/15 05:33:54;;;;;;;18.75;6.97;;;11.90;99.90;;;;;;5029038;28;20395;-71
2022/10/15 05:36:26;;;;;;;21.52;8.27;;;11.90;99.90;;;;;;5027942;28;20052;-71
2022/10/15 05:38:54;;;;;;;21.45;8.07;;;11.80;99.90;;;;;;5027869;28;20049;-71
2022/10/15 05:41:20;;;;;;;19.48;8.52;;;11.90;99.90;;;;;;5027077;28;20048;-71
2022/10/15 05:43:47;;;;;;;16.58;8.27;;;11.90;99.90;;;;;;5010240;28;20045;-71
2022/10/15 05:46:13;;;;;;;17.85;6.95;;;11.90;99.90;;;;;;5029133;28;20468;-71
2022/10/15 05:48:39;;;;;;;17.80;7.97;;;11.90;99.90;;;;;;5027494;28;20486;-71
2022/10/15 05:51:07;;;;;;;18.83;7.40;;;11.90;99.90;;;;;;5027413;28;20057;-71
2022/10/15 05:53:33;;;;;;;21.02;7.70;;;11.90;99.90;;;;;;5027204;28;20507;-71
2022/10/15 05:55:59;;;;;;;18.90;8.27;;;11.90;99.90;;;;;;5027298;28;20037;-71
2022/10/15 05:58:28;;;;;;;20.85;8.07;;;11.90;99.90;;;;;;5027747;28;20049;-71
2022/10/15 06:00:59;;;;;;;16.25;7.13;;;11.90;99.90;;;;;;5028741;28;20479;-71
2022/10/15 06:03:26;;;;;;;23.10;7.35;;;11.90;99.90;;;;;;5027276;28;20042;-71
2022/10/15 06:05:52;;;;;;;23.23;7.90;;;11.90;99.90;;;;;;5010940;28;20168;-71
2022/10/15 06:08:18;;;;;;;20.65;8.38;;;11.90;99.90;;;;;;5027015;28;20049;-71
2022/10/15 06:10:44;;;;;;;19.50;8.52;;;11.90;99.90;;;;;;5011025;28;20094;-71
2022/10/15 06:13:11;;;;;;;18.48;7.53;;;11.90;99.90;;;;;;5010019;28;20509;-71
2022/10/15 06:15:42;;;;;;;19.02;7.40;;;11.90;99.90;;;;;;5027411;28;20045;-71
2022/10/15 06:18:09;;;;;;;20.77;7.75;;;11.90;99.90;;;;;;5028666;28;20424;-71
2022/10/15 06:20:35;;;;;;;18.83;8.02;;;11.90;99.90;;;;;;5028583;28;20111;-71
2022/10/15 06:23:03;;;;;;;21.42;8.77;;;11.90;99.90;;;;;;5026830;28;20049;-71
2022/10/15 06:25:28;;;;;;;21.63;8.98;;;11.90;99.90;;;;;;5027286;28;20048;-71
2022/10/15 06:27:54;;;;;;;19.35;7.82;;;11.90;99.90;;;;;;5026110;28;20033;-71
2022/10/15 06:30:20;;;;;;;25.30;9.02;;;11.90;99.90;;;;;;5010887;28;20045;-71
2022/10/15 06:32:50;;;;;;;16.13;7.15;;;12.00;99.90;;;;;;5010670;28;20045;-71
2022/10/15 06:35:17;;;;;;;21.83;8.57;;;12.00;99.90;;;;;;5027143;28;20569;-71
2022/10/15 06:37:42;;;;;;;18.85;8.02;;;12.00;99.90;;;;;;5026984;28;20049;-71
2022/10/15 06:40:09;;;;;;;18.05;7.80;;;12.00;99.90;;;;;;5027097;28;20064;-71
2022/10/15 06:42:34;;;;;;;17.30;7.60;;;12.00;99.90;;;;;;5026221;28;20235;-71
2022/10/15 06:45:00;;;;;;;20.95;9.02;;;12.00;99.90;;;;;;5030623;28;20055;-71
2022/10/15 06:47:25;;;;;;;17.73;7.50;;;12.10;99.90;;;;;;5030625;28;20038;-71
2022/10/15 06:49:51;;;;;;;18.73;7.97;;;12.10;99.90;;;;;;5014006;28;20044;-71
2022/10/15 06:52:16;;;;;;;22.45;9.15;;;12.10;99.90;;;;;;5030336;28;20073;-71
2022/10/15 06:54:42;;;;;;;20.58;8.40;;;12.10;99.90;;;;;;5013749;28;20117;-71
2022/10/15 06:57:07;;;;;;;19.30;8.27;;;12.10;99.90;;;;;;5029766;28;20049;-71
2022/10/15 06:59:33;;;;;;;19.45;9.00;;;12.10;99.90;;;;;;5030373;28;20542;-71
2022/10/15 07:01:59;;;;;;;19.08;7.38;;;12.10;99.90;;;;;;5030547;28;20123;-71
2022/10/15 07:04:24;;;;;;;17.67;8.02;;;12.10;99.90;;;;;;5030241;28;20041;-71
2022/10/15 07:06:50;;;;;;;18.52;8.23;;;12.20;99.90;;;;;;5029872;28;20061;-71
2022/10/15 07:09:15;;;;;;;17.48;7.93;;;12.10;99.90;;;;;;5029889;28;20129;-71
2022/10/15 07:11:41;;;;;;;21.55;8.85;;;12.20;99.90;;;;;;5029376;28;20418;-71
2022/10/15 07:14:07;;;;;;;16.90;7.47;;;12.20;99.90;;;;;;5030118;28;20380;-71
2022/10/15 07:16:32;;;;;;;21.38;7.53;;;12.30;99.90;;;;;;5030007;28;20045;-71
2022/10/15 07:18:58;;;;;;;23.65;8.57;;;12.30;99.90;;;;;;5030097;28;20116;-71
2022/10/15 07:21:23;;;;;;;18.55;7.75;;;12.30;99.90;;;;;;5029939;28;20042;-71
2022/10/15 07:23:49;;;;;;;19.90;8.77;;;12.30;99.90;;;;;;5029254;28;20072;-71
2022/10/15 07:26:15;;;;;;;20.08;8.02;;;12.40;99.90;;;;;;5031003;28;20128;-71
2022/10/15 07:28:40;;;;;;;15.18;6.70;;;12.50;99.90;;;;;;5013151;28;20038;-71
2022/10/15 07:31:06;;;;;;;20.02;8.55;;;12.40;99.90;;;;;;5029894;28;20038;-71
2022/10/15 07:33:36;;;;;;;17.13;7.55;;;12.50;99.90;;;;;;5029967;28;20052;-71
2022/10/15 07:36:07;;;;;;;18.65;8.25;;;12.50;99.90;;;;;;5029837;28;20045;-71
2022/10/15 07:38:34;;;;;;;15.10;6.25;;;12.50;99.90;;;;;;5030629;28;20438;-71
2022/10/15 07:41:01;;;;;;;19.35;7.85;;;12.50;99.90;;;;;;5029405;28;20664;-71
2022/10/15 07:43:27;;;;;;;15.32;6.35;;;12.50;99.90;;;;;;5029076;28;20552;-71
2022/10/15 07:45:53;;;;;;;20.00;8.68;;;12.50;99.90;;;;;;5013181;28;20506;-71
2022/10/15 07:48:18;;;;;;;15.60;7.50;;;12.60;99.90;;;;;;5029654;28;20045;-71
2022/10/15 07:50:44;;;;;;;19.00;7.55;;;12.50;99.90;;;;;;5029506;28;20384;-71
2022/10/15 07:53:10;;;;;;;19.48;7.35;;;12.50;99.90;;;;;;5012630;28;20383;-71
2022/10/15 07:55:36;;;;;;;14.52;6.75;;;12.50;99.90;;;;;;5012459;28;20044;-71
2022/10/15 07:58:04;;;;;;;13.18;6.88;;;12.50;99.90;;;;;;5028125;28;20042;-71
2022/10/15 08:00:31;;;;;;;18.38;8.43;;;12.50;99.90;;;;;;5029329;28;20124;-71
2022/10/15 08:02:56;;;;;;;14.93;6.72;;;12.50;99.90;;;;;;5029250;28;20050;-71
2022/10/15 08:05:22;;;;;;;18.63;8.18;;;12.60;99.90;;;;;;5030741;28;20048;-71
2022/10/15 08:07:47;;;;;;;18.27;7.43;;;12.60;99.90;;;;;;5028254;28;20053;-71
2022/10/15 08:10:13;;;;;;;13.38;6.57;;;12.50;99.90;;;;;;5029206;28;20136;-71
2022/10/15 08:12:39;;;;;;;20.67;8.52;;;12.50;99.90;;;;;;5011561;28;20130;-71
2022/10/15 08:15:05;;;;;;;15.60;7.57;;;12.60;99.90;;;;;;5028802;28;20645;-71
2022/10/15 08:17:31;;;;;;;18.02;7.95;;;12.60;99.90;;;;;;5012851;28;20095;-71
2022/10/15 08:19:57;;;;;;;15.95;6.68;;;12.70;99.90;;;;;;5012394;28;20045;-71
2022/10/15 08:22:22;;;;;;;18.20;7.88;;;12.80;99.90;;;;;;5028293;28;20720;-71
2022/10/15 08:24:48;;;;;;;14.02;7.07;;;12.80;99.90;;;;;;5028737;28;20041;-71
2022/10/15 08:27:13;;;;;;;16.33;7.78;;;12.90;99.90;;;;;;5027754;28;20107;-71
2022/10/15 08:29:39;;;;;;;15.15;7.03;;;12.90;99.90;;;;;;5028691;28;20060;-71
2022/10/15 08:32:04;;;;;;;20.08;8.23;;;12.90;99.90;;;;;;5028825;28;20037;-71
2022/10/15 08:34:30;;;;;;;16.10;6.90;;;13.00;99.90;;;;;;5028802;28;20037;-71
2022/10/15 08:36:56;;;;;;;18.00;8.07;;;13.10;99.90;;;;;;5028020;28;20554;-71
2022/10/15 08:39:21;;;;;;;18.88;8.30;;;13.10;99.90;;;;;;5012387;28;20110;-71
2022/10/15 08:42:01;;;;;;;14.18;7.32;;;13.20;99.90;;;;;;5028698;28;20199;-71
2022/10/15 08:44:48;;;;;;;16.08;7.93;;;13.20;99.90;;;;;;5028338;28;20049;-71
2022/10/15 08:47:37;;;;;;;17.27;7.53;;;13.20;99.90;;;;;;5028201;28;20045;-71
2022/10/15 08:50:15;;;;;;;15.73;7.20;;;13.20;99.90;;;;;;5028586;28;20439;-71
2022/10/15 08:52:44;;;;;;;18.00;8.10;;;13.20;99.90;;;;;;5028329;28;20119;-71
2022/10/15 08:55:19;;;;;;;16.25;7.00;;;13.20;99.90;;;;;;5028277;28;20037;-71
2022/10/15 08:57:57;;;;;;;17.70;8.32;;;13.20;99.90;;;;;;5027077;28;20385;-71
2022/10/15 09:00:26;;;;;;;14.90;6.47;;;13.20;99.90;;;;;;5028266;28;20124;-71
2022/10/15 09:03:02;;;;;;;17.63;7.35;;;13.30;99.90;;;;;;5027961;28;20041;-71
2022/10/15 09:05:34;;;;;;;;;;;13.30;99.90;;;;;;5011511;28;20041;-71
2022/10/15 09:08:27;;;;;;;16.20;7.28;;;13.30;99.90;;;;;;5028690;28;20015;-71
2022/10/15 09:10:59;;;;;;;16.77;7.95;;;13.20;99.90;;;;;;5027873;28;20049;-71
2022/10/15 09:13:42;;;;;;;23.35;8.82;;;13.30;99.90;;;;;;5027230;28;20177;-71
2022/10/15 09:16:18;;;;;;;16.42;7.25;;;13.30;99.90;;;;;;5027716;28;20041;-71
2022/10/15 09:18:46;;;;;;;22.40;8.50;;;13.30;99.90;;;;;;5028335;28;20421;-71
2022/10/15 09:21:13;;;;;;;19.58;8.00;;;13.30;99.90;;;;;;5028145;28;20438;-71
2022/10/15 09:23:43;;;;;;;16.77;7.35;;;13.30;99.90;;;;;;5027588;28;20053;-71
2022/10/15 09:26:11;;;;;;;17.95;8.23;;;13.30;99.90;;;;;;5027369;28;20087;-71
2022/10/15 09:28:59;;;;;;;15.70;7.47;;;13.30;99.90;;;;;;5027525;28;20130;-71
2022/10/15 09:31:32;;;;;;;13.70;6.43;;;13.20;99.90;;;;;;5028011;28;20041;-71
2022/10/15 09:34:09;;;;;;;16.45;6.90;;;13.20;99.90;;;;;;5027649;28;20405;-71
2022/10/15 09:36:44;;;;;;;15.30;7.00;;;13.20;99.90;;;;;;5027370;28;20124;-71
2022/10/15 09:39:29;;;;;;;13.77;6.50;;;13.10;99.90;;;;;;5011574;28;20527;-71
2022/10/15 09:42:13;;;;;;;13.23;5.63;;;13.10;99.90;;;;;;5026639;28;20056;-71
2022/10/15 09:44:43;;;;;;;14.23;5.93;;;13.10;99.90;;;;;;5011388;28;20049;-70
2022/10/15 09:47:27;;;;;;;14.70;5.68;;;13.10;99.90;;;;;;5011145;28;20053;-71
2022/10/15 09:49:52;;;;;;;13.05;5.43;;;13.10;99.90;;;;;;5027472;28;20087;-71
2022/10/15 09:52:49;;;;;;;15.90;5.43;;;13.10;99.90;;;;;;5027516;28;20081;-71
2022/10/15 09:55:26;;;;;;;12.32;5.00;;;13.10;99.90;;;;;;5011215;28;20311;-71
2022/10/15 09:57:55;;;;;;;13.55;5.07;;;13.10;99.90;;;;;;5026362;28;20067;-70
2022/10/15 10:00:21;;;;;;;11.63;5.47;;;13.10;99.90;;;;;;5028724;28;20484;-71
2022/10/15 10:03:05;;;;;;;12.02;4.90;;;13.10;99.90;;;;;;5027350;28;20038;-71
2022/10/15 10:05:34;;;;;;;12.57;4.97;;;13.20;99.90;;;;;;5027426;28;20049;-71
2022/10/15 10:08:08;;;;;;;14.52;5.45;;;13.20;99.90;;;;;;5010110;28;20180;-71
2022/10/15 10:10:36;;;;;;;12.98;5.78;;;13.20;99.90;;;;;;5027172;28;20188;-71
2022/10/15 10:13:06;;;;;;;13.23;5.18;;;13.20;99.90;;;;;;5026585;28;20038;-71
2022/10/15 10:15:34;;;;;;;10.18;4.13;;;13.20;99.90;;;;;;5027540;28;20430;-71
2022/10/15 10:18:00;;;;;;;13.30;4.57;;;13.20;99.90;;;;;;5013257;28;20046;-71
2022/10/15 10:20:31;;;;;;;10.85;4.97;;;13.20;99.90;;;;;;5032431;28;20057;-71
2022/10/15 10:22:59;;;;;;;11.13;5.30;;;13.30;99.90;;;;;;5014118;28;20228;-71
2022/10/15 10:25:32;;;;;;;13.15;5.13;;;13.30;99.90;;;;;;5029775;28;20531;-71
2022/10/15 10:28:21;;;;;;;12.90;5.28;;;13.20;99.90;;;;;;5025411;28;20483;-71
2022/10/15 10:31:01;;;;;;;13.48;5.50;;;13.30;99.90;;;;;;5006405;28;20053;-71
2022/10/15 10:33:46;;;;;;;13.70;5.22;;;13.30;99.90;;;;;;5028570;28;20045;-71
2022/10/15 10:36:25;;;;;;;14.55;5.40;;;13.30;99.90;;;;;;5027783;28;20045;-71
2022/10/15 10:39:17;;;;;;;13.68;5.07;;;13.40;99.90;;;;;;5029524;28;20632;-71
2022/10/15 10:41:53;;;;;;;12.50;4.80;;;13.40;99.90;;;;;;5004938;28;20092;-71
2022/10/15 10:44:29;;;;;;;10.27;4.93;;;13.50;99.90;;;;;;5022843;28;20049;-71
2022/10/15 10:47:03;;;;;;;13.73;5.00;;;13.60;99.90;;;;;;5011270;28;20373;-71
2022/10/15 10:49:35;;;;;;;10.48;4.53;;;13.70;99.90;;;;;;5029439;28;20038;-71
2022/10/15 10:52:00;;;;;;;12.55;5.07;;;13.70;99.90;;;;;;5028694;28;20069;-71
2022/10/15 10:54:28;;;;;;;12.00;5.28;;;13.80;99.90;;;;;;5029217;28;20455;-71
2022/10/15 10:56:55;;;;;;;11.00;4.80;;;13.80;99.90;;;;;;5022534;28;20038;-71
2022/10/15 10:59:50;;;;;;;11.68;5.57;;;13.90;99.90;;;;;;5004528;28;20447;-71
2022/10/15 11:02:15;;;;;;;13.07;4.90;;;14.00;99.90;;;;;;5021008;28;20090;-71
2022/10/15 11:04:41;;;;;;;23.38;10.30;;;14.00;99.90;;;;;;5020399;28;20449;-71
2022/10/15 11:07:26;;;;;;;9.68;4.38;;;14.10;99.90;;;;;;5013380;28;20141;-71
2022/10/15 11:10:06;;;;;;;15.15;6.13;;;14.10;99.90;;;;;;5010296;28;20499;-71
2022/10/15 11:12:53;;;;;;;11.00;4.30;;;14.20;99.90;;;;;;5009540;28;20053;-71
2022/10/15 11:15:41;;;;;;;11.95;5.20;;;14.20;99.90;;;;;;4993724;28;20049;-71
2022/10/15 11:18:22;;;;;;;8.48;4.25;;;14.30;99.90;;;;;;5010036;28;20090;-71
2022/10/15 11:20:53;;;;;;;10.00;4.32;;;14.20;99.90;;;;;;5011420;28;20034;-71
2022/10/15 11:23:46;;;;;;;12.80;5.18;;;14.30;99.90;;;;;;5030324;28;20570;-71
2022/10/15 11:26:34;;;;;;;9.40;4.85;;;14.30;99.90;;;;;;5046344;28;20049;-71
2022/10/15 11:29:15;;;;;;;9.13;3.78;;;14.30;99.90;;;;;;5045964;28;20128;-71
2022/10/15 11:32:03;;;;;;;11.00;4.28;;;14.30;99.90;;;;;;5035075;28;20038;-71
2022/10/15 11:34:29;;;;;;;10.27;5.07;;;14.30;99.90;;;;;;5026302;28;20549;-71
2022/10/15 11:37:15;;;;;;;11.95;4.60;;;14.40;99.90;;;;;;5009393;28;20073;-71
2022/10/15 11:40:14;;;;;;;14.05;4.63;;;14.40;99.90;;;;;;5010315;28;20442;-71
2022/10/15 11:42:56;;;;;;;10.05;3.83;;;14.30;99.90;;;;;;5008750;28;20092;-71
2022/10/15 11:45:37;;;;;;;8.13;3.58;;;14.30;99.90;;;;;;5009934;28;20100;-71
2022/10/15 11:48:08;;;;;;;10.70;4.38;;;14.40;99.90;;;;;;5010032;28;20072;-71
2022/10/15 11:50:43;;;;;;;9.85;4.53;;;14.40;99.90;;;;;;5025866;28;20449;-71
2022/10/15 11:53:36;;;;;;;10.57;4.22;;;14.40;99.90;;;;;;5009457;28;20049;-71
2022/10/15 11:56:17;;;;;;;8.27;3.72;;;14.40;99.90;;;;;;4992795;28;20049;-71
2022/10/15 11:58:55;;;;;;;10.27;4.35;;;14.50;99.90;;;;;;5025345;28;20042;-71
2022/10/15 12:01:47;;;;;;;9.52;4.35;;;14.40;99.90;;;;;;5009306;28;20176;-71
2022/10/15 12:04:43;;;;;;;11.32;4.38;;;14.40;99.90;;;;;;5025940;28;20046;-71
2022/10/15 12:07:27;;;;;;;7.93;3.65;;;14.40;99.90;;;;;;5008898;28;20052;-71
2022/10/15 12:09:59;;;;;;;10.00;3.00;;;14.50;99.90;;;;;;5009202;28;20097;-70
2022/10/15 12:12:48;;;;;;;8.52;4.45;;;14.50;99.90;;;;;;5024684;28;20092;-70
2022/10/15 12:15:39;;;;;;;7.82;3.58;;;14.60;99.90;;;;;;5029083;28;20050;-70
2022/10/15 12:18:30;;;;;;;9.35;4.10;;;14.60;99.90;;;;;;5028507;28;20049;-70
2022/10/15 12:20:57;;;;;;;8.70;4.53;;;14.60;99.90;;;;;;5028973;28;20061;-70
2022/10/15 12:23:24;;;;;;;8.55;3.80;;;14.60;99.90;;;;;;5012178;28;20519;-70
2022/10/15 12:25:50;;;;;;;9.93;4.07;;;14.70;99.90;;;;;;5028473;28;20057;-70
2022/10/15 12:28:19;;;;;;;8.13;3.90;;;14.70;99.90;;;;;;5011305;28;20041;-70
2022/10/15 12:30:59;;;;;;;9.20;4.25;;;14.70;99.90;;;;;;5029033;28;20054;-70
2022/10/15 12:33:33;;;;;;;8.23;3.88;;;14.70;99.90;;;;;;5028737;28;20120;-70
2022/10/15 12:36:04;;;;;;;9.55;3.67;;;14.70;99.90;;;;;;5028403;28;20049;-71
2022/10/15 12:38:36;;;;;;;11.95;4.10;;;14.70;99.90;;;;;;5027870;28;20045;-70
2022/10/15 12:41:08;;;;;;;7.68;3.83;;;14.70;99.90;;;;;;5024429;28;20116;-72
2022/10/15 12:43:37;;;;;;;11.23;3.95;;;14.70;99.90;;;;;;5021158;28;20062;-71
2022/10/15 12:46:06;;;;;;;9.98;4.07;;;14.60;99.90;;;;;;5023903;28;20596;-71
2022/10/15 12:48:44;;;;;;;10.63;4.60;;;14.70;99.90;;;;;;5017072;28;20033;-71
2022/10/15 12:51:15;;;;;;;9.90;3.97;;;14.60;99.90;;;;;;5021285;28;20286;-71
2022/10/15 12:53:43;;;;;;;10.95;4.63;;;14.60;99.90;;;;;;5023171;28;20037;-71
2022/10/15 12:56:14;;;;;;;8.55;3.42;;;14.60;99.90;;;;;;5018880;28;20075;-70